createdAt,value
2023-12-09T00:02:20.928Z,0.22
2023-12-09T00:04:49.193Z,0.13
2023-12-09T00:07:17.433Z,0.08
2023-12-09T00:09:45.585Z,0.04
2023-12-09T00:12:13.972Z,-0.08
2023-12-09T00:14:42.431Z,-0.12
2023-12-09T00:17:10.683Z,-0.21
2023-12-09T00:19:38.895Z,-0.24
2023-12-09T00:22:07.220Z,-0.25
2023-12-09T00:24:35.522Z,-0.26
2023-12-09T00:27:04.417Z,-0.27
2023-12-09T00:29:32.695Z,-0.34
2023-12-09T00:32:00.977Z,-0.42
2023-12-09T00:34:29.137Z,-0.41
2023-12-09T00:36:57.376Z,-0.40
2023-12-09T00:39:25.700Z,-0.39
2023-12-09T00:41:53.985Z,-0.37
2023-12-09T00:44:22.397Z,-0.36
2023-12-09T00:46:50.656Z,-0.40
2023-12-09T00:49:18.976Z,-0.35
2023-12-09T00:51:47.235Z,-0.34
2023-12-09T00:54:15.672Z,-0.31
2023-12-09T00:56:43.824Z,-0.39
2023-12-09T00:59:12.142Z,-0.50
2023-12-09T01:01:40.386Z,-0.53
2023-12-09T01:04:08.922Z,-0.50
2023-12-09T01:06:37.412Z,-0.56
2023-12-09T01:09:05.724Z,-0.67
2023-12-09T01:11:34.011Z,-0.74
2023-12-09T01:14:02.342Z,-0.82
2023-12-09T01:16:30.665Z,-0.88
2023-12-09T01:18:58.981Z,-0.91
2023-12-09T01:21:27.436Z,-0.96
2023-12-09T01:23:55.695Z,-0.99
2023-12-09T01:26:24.044Z,-1.06
2023-12-09T01:28:52.275Z,-1.03
2023-12-09T01:31:20.537Z,-0.98
2023-12-09T01:33:48.750Z,-0.93
2023-12-09T01:36:17.169Z,-0.84
2023-12-09T01:38:45.315Z,-0.77
2023-12-09T01:41:13.461Z,-0.75
2023-12-09T01:43:42.117Z,-0.79
2023-12-09T01:46:12.198Z,-0.79
2023-12-09T01:48:41.552Z,-0.76
2023-12-09T01:51:10.432Z,-0.77
2023-12-09T01:53:38.870Z,-0.70
2023-12-09T01:56:11.578Z,-0.62
2023-12-09T01:58:39.789Z,-0.59
2023-12-09T02:01:08.417Z,-0.68
2023-12-09T02:03:37.604Z,-0.76
2023-12-09T02:06:06.165Z,-0.73
2023-12-09T02:08:34.714Z,-0.69
2023-12-09T02:11:35.362Z,-0.68
2023-12-09T02:14:08.678Z,-0.60
2023-12-09T02:16:47.321Z,-0.55
2023-12-09T02:19:16.063Z,-0.53
2023-12-09T02:22:07.078Z,-0.44
2023-12-09T02:24:35.667Z,-0.38
2023-12-09T02:27:13.827Z,-0.34
2023-12-09T02:30:21.489Z,-0.29
2023-12-09T02:32:51.764Z,-0.23
2023-12-09T02:35:21.394Z,-0.26
2023-12-09T02:37:51.047Z,-0.25
2023-12-09T02:40:20.773Z,-0.22
2023-12-09T02:42:50.568Z,-0.19
2023-12-09T02:45:22.482Z,-0.15
2023-12-09T02:47:50.781Z,-0.10
2023-12-09T02:50:19.320Z,-0.06
2023-12-09T02:52:47.591Z,-0.02
2023-12-09T02:55:16.954Z,-0.02
2023-12-09T02:57:45.180Z,-0.07
2023-12-09T03:00:13.974Z,-0.07
2023-12-09T03:02:43.101Z,-0.10
2023-12-09T03:05:11.470Z,-0.06
2023-12-09T03:07:39.752Z,-0.02
2023-12-09T03:10:08.348Z,0.01
2023-12-09T03:12:37.338Z,0.01
2023-12-09T03:15:07.052Z,-0.07
2023-12-09T03:17:36.285Z,-0.15
2023-12-09T03:20:08.378Z,-0.18
2023-12-09T03:22:36.876Z,-0.21
2023-12-09T03:25:05.660Z,-0.23
2023-12-09T03:27:34.098Z,-0.22
2023-12-09T03:30:02.475Z,-0.18
2023-12-09T03:32:30.984Z,-0.25
2023-12-09T03:34:59.363Z,-0.36
2023-12-09T03:37:28.053Z,-0.36
2023-12-09T03:39:56.330Z,-0.32
2023-12-09T03:42:25.005Z,-0.37
2023-12-09T03:44:53.610Z,-0.40
2023-12-09T03:47:28.749Z,-0.39
2023-12-09T03:49:58.329Z,-0.35
2023-12-09T03:52:26.788Z,-0.45
2023-12-09T03:54:55.223Z,-0.52
2023-12-09T03:57:23.362Z,-0.51
2023-12-09T03:59:51.703Z,-0.44
2023-12-09T04:02:20.028Z,-0.38
2023-12-09T04:04:48.267Z,-0.34
2023-12-09T04:07:16.849Z,-0.29
2023-12-09T04:09:45.062Z,-0.29
2023-12-09T04:12:13.381Z,-0.30
2023-12-09T04:14:42.144Z,-0.29
2023-12-09T04:17:10.285Z,-0.29
2023-12-09T04:19:38.646Z,-0.30
2023-12-09T04:22:07.078Z,-0.32
2023-12-09T04:24:35.306Z,-0.34
2023-12-09T04:27:03.845Z,-0.35
2023-12-09T04:29:32.256Z,-0.37
2023-12-09T04:32:00.480Z,-0.48
2023-12-09T04:34:28.779Z,-0.46
2023-12-09T04:36:57.656Z,-0.43
2023-12-09T04:39:26.000Z,-0.42
2023-12-09T04:41:54.274Z,-0.37
2023-12-09T04:44:24.467Z,-0.43
2023-12-09T04:46:52.981Z,-0.60
2023-12-09T04:49:21.339Z,-0.66
2023-12-09T04:51:49.687Z,-0.66
2023-12-09T04:54:18.159Z,-0.73
2023-12-09T04:56:46.396Z,-0.84
2023-12-09T04:59:15.348Z,-0.89
2023-12-09T05:01:43.725Z,-1.12
2023-12-09T05:04:12.664Z,-1.16
2023-12-09T05:06:41.034Z,-1.20
2023-12-09T05:09:10.053Z,-1.20
2023-12-09T05:11:38.546Z,-1.24
2023-12-09T05:14:07.184Z,-1.29
2023-12-09T05:16:35.631Z,-1.31
2023-12-09T05:19:05.533Z,-1.31
2023-12-09T05:21:35.951Z,-1.27
2023-12-09T05:24:06.008Z,-1.20
2023-12-09T05:26:34.866Z,-1.15
2023-12-09T05:29:04.758Z,-1.17
2023-12-09T05:31:33.132Z,-1.25
2023-12-09T05:34:02.764Z,-1.33
2023-12-09T05:36:31.457Z,-1.29
2023-12-09T05:39:00.338Z,-1.20
2023-12-09T05:41:28.611Z,-1.10
2023-12-09T05:43:57.010Z,-1.03
2023-12-09T05:46:25.382Z,-0.99
2023-12-09T05:48:53.771Z,-1.02
2023-12-09T05:51:22.235Z,-1.12
2023-12-09T05:53:50.455Z,-1.14
2023-12-09T05:56:19.020Z,-1.10
2023-12-09T05:58:47.353Z,-1.03
2023-12-09T06:01:15.805Z,-0.97
2023-12-09T06:03:44.139Z,-0.93
2023-12-09T06:06:12.642Z,-0.93
2023-12-09T06:08:41.117Z,-0.91
2023-12-09T06:11:09.383Z,-0.89
2023-12-09T06:13:37.630Z,-0.87
2023-12-09T06:16:05.965Z,-0.92
2023-12-09T06:18:34.193Z,-0.94
2023-12-09T06:21:02.574Z,-0.91
2023-12-09T06:23:30.840Z,-0.92
2023-12-09T06:25:59.250Z,-0.88
2023-12-09T06:28:27.707Z,-0.86
2023-12-09T06:30:56.999Z,-0.81
2023-12-09T06:33:25.540Z,-0.78
2023-12-09T06:35:53.989Z,-0.78
2023-12-09T06:38:22.214Z,-0.76
2023-12-09T06:40:50.944Z,-0.69
2023-12-09T06:43:19.228Z,-0.61
2023-12-09T06:45:47.867Z,-0.56
2023-12-09T06:48:16.331Z,-0.54
2023-12-09T06:50:44.680Z,-0.55
2023-12-09T06:53:14.868Z,-0.55
2023-12-09T06:55:43.315Z,-0.51
2023-12-09T06:58:11.994Z,-0.46
2023-12-09T07:00:40.556Z,-0.43
2023-12-09T07:03:09.062Z,-0.39
2023-12-09T07:05:37.354Z,-0.42
2023-12-09T07:08:06.056Z,-0.39
2023-12-09T07:10:34.381Z,-0.33
2023-12-09T07:13:02.984Z,-0.27
2023-12-09T07:15:31.803Z,-0.22
2023-12-09T07:18:00.354Z,-0.10
2023-12-09T07:20:28.661Z,-0.01
2023-12-09T07:22:57.160Z,0.09
2023-12-09T07:25:25.400Z,0.15
2023-12-09T07:27:53.681Z,0.18
2023-12-09T07:30:22.273Z,0.13
2023-12-09T07:32:50.913Z,0.05
2023-12-09T07:35:19.573Z,0.05
2023-12-09T07:37:48.481Z,0.08
2023-12-09T07:40:17.409Z,0.03
2023-12-09T07:42:45.714Z,-0.05
2023-12-09T07:45:14.170Z,-0.01
2023-12-09T07:47:42.409Z,0.03
2023-12-09T07:50:12.529Z,0.02
2023-12-09T07:52:41.414Z,-0.06
2023-12-09T07:55:10.145Z,-0.02
2023-12-09T07:57:38.422Z,0.02
2023-12-09T08:00:08.907Z,0.05
2023-12-09T08:02:37.196Z,0.16
2023-12-09T08:05:05.907Z,0.29
2023-12-09T08:07:34.236Z,0.39
2023-12-09T08:10:02.673Z,0.49
2023-12-09T08:12:32.613Z,0.56
2023-12-09T08:15:01.577Z,0.55
2023-12-09T08:17:30.214Z,0.45
2023-12-09T08:19:58.649Z,0.25
2023-12-09T08:22:27.889Z,0.12
2023-12-09T08:24:56.243Z,0.21
2023-12-09T08:27:24.561Z,0.35
2023-12-09T08:29:53.116Z,0.48
2023-12-09T08:32:21.363Z,0.59
2023-12-09T08:34:59.701Z,0.73
2023-12-09T08:37:31.746Z,0.85
2023-12-09T08:40:13.993Z,0.96
2023-12-09T08:42:47.139Z,1.04
2023-12-09T08:45:20.140Z,1.09
2023-12-09T08:47:48.609Z,1.15
2023-12-09T08:52:48.225Z,1.43
2023-12-09T08:55:18.574Z,1.66
2023-12-09T08:57:47.344Z,1.86
2023-12-09T09:00:20.466Z,1.96
2023-12-09T09:02:49.120Z,2.04
2023-12-09T09:05:17.559Z,2.10
2023-12-09T09:07:46.008Z,2.23
2023-12-09T09:10:15.609Z,2.42
2023-12-09T09:12:48.541Z,2.54
2023-12-09T09:15:20.883Z,2.57
2023-12-09T09:17:50.067Z,2.67
2023-12-09T09:20:19.156Z,2.84
2023-12-09T09:22:48.509Z,2.98
2023-12-09T09:25:17.314Z,3.09
2023-12-09T09:27:45.745Z,3.14
2023-12-09T09:30:15.677Z,3.56
2023-12-09T09:32:45.255Z,4.11
2023-12-09T09:35:13.656Z,4.56
2023-12-09T09:37:41.950Z,4.79
2023-12-09T09:40:13.055Z,4.83
2023-12-09T09:42:52.496Z,4.90
2023-12-09T09:45:31.916Z,4.94
2023-12-09T09:48:08.309Z,5.01
2023-12-09T09:50:46.966Z,4.95
2023-12-09T09:53:26.271Z,4.88
2023-12-09T09:55:55.582Z,5.10
2023-12-09T09:58:23.919Z,5.22
2023-12-09T10:00:57.953Z,5.37
2023-12-09T10:03:26.414Z,5.89
2023-12-09T10:05:54.911Z,6.43
2023-12-09T10:08:24.713Z,6.72
2023-12-09T10:10:53.020Z,7.35
2023-12-09T10:13:21.299Z,8.56
2023-12-09T10:15:50.375Z,9.54
2023-12-09T10:18:22.487Z,10.45
2023-12-09T10:20:51.220Z,10.28
2023-12-09T10:23:20.933Z,9.51
2023-12-09T10:25:50.260Z,9.49
2023-12-09T10:28:18.550Z,9.50
2023-12-09T10:30:47.240Z,10.63
2023-12-09T10:33:16.700Z,11.23
2023-12-09T10:35:46.046Z,11.04
2023-12-09T10:38:17.212Z,10.91
2023-12-09T10:40:45.651Z,11.03
2023-12-09T10:43:14.596Z,11.61
2023-12-09T10:45:43.910Z,11.10
2023-12-09T10:48:12.396Z,10.61
2023-12-09T10:50:41.142Z,10.24
2023-12-09T10:53:09.402Z,10.48
2023-12-09T10:55:38.165Z,11.09
2023-12-09T10:58:06.688Z,11.03
2023-12-09T11:00:37.965Z,10.55
2023-12-09T11:03:08.550Z,10.72
2023-12-09T11:05:56.082Z,11.96
2023-12-09T11:08:29.461Z,13.07
2023-12-09T11:10:58.857Z,13.67
2023-12-09T11:13:30.589Z,14.60
2023-12-09T11:16:12.912Z,14.89
2023-12-09T11:18:56.609Z,14.93
2023-12-09T11:21:33.192Z,15.19
2023-12-09T11:24:01.488Z,15.25
2023-12-09T11:26:35.218Z,14.83
2023-12-09T11:29:10.973Z,14.51
2023-12-09T11:31:44.697Z,14.97
2023-12-09T11:34:18.840Z,15.23
2023-12-09T11:36:50.220Z,15.30
2023-12-09T11:39:23.831Z,15.03
2023-12-09T11:41:52.516Z,14.39
2023-12-09T11:44:20.832Z,13.47
2023-12-09T11:46:49.070Z,13.03
2023-12-09T11:49:17.461Z,12.83
2023-12-09T11:51:46.741Z,12.31
2023-12-09T11:54:15.232Z,11.44
2023-12-09T11:56:43.414Z,10.68
2023-12-09T11:59:11.764Z,10.14
2023-12-09T12:01:41.905Z,9.65
2023-12-09T12:04:10.254Z,9.13
2023-12-09T12:06:39.242Z,8.70
2023-12-09T12:09:07.589Z,8.29
2023-12-09T12:11:36.022Z,7.74
2023-12-09T12:14:05.890Z,7.35
2023-12-09T12:16:34.181Z,6.92
2023-12-09T12:19:02.692Z,6.53
2023-12-09T12:21:31.183Z,6.17
2023-12-09T12:24:05.492Z,5.89
2023-12-09T12:26:33.642Z,5.61
2023-12-09T12:29:02.481Z,5.25
2023-12-09T12:31:32.814Z,4.93
2023-12-09T12:34:18.979Z,4.63
2023-12-09T12:36:52.227Z,4.52
2023-12-09T12:39:22.192Z,4.25
2023-12-09T12:41:51.329Z,4.04
2023-12-09T12:44:19.818Z,3.93
2023-12-09T12:46:48.015Z,3.81
2023-12-09T12:49:16.271Z,3.71
2023-12-09T12:51:45.221Z,3.60
2023-12-09T12:54:13.940Z,3.51
2023-12-09T12:56:42.253Z,3.42
2023-12-09T12:59:10.605Z,3.32
2023-12-09T13:01:38.944Z,3.20
2023-12-09T13:04:07.315Z,3.06
2023-12-09T13:06:35.636Z,2.97
2023-12-09T13:09:05.865Z,2.88
2023-12-09T13:11:34.187Z,2.79
2023-12-09T13:14:02.685Z,2.72
2023-12-09T13:16:31.084Z,2.69
2023-12-09T13:18:59.427Z,2.67
2023-12-09T13:21:27.918Z,2.67
2023-12-09T13:23:56.221Z,2.63
2023-12-09T13:26:24.668Z,2.60
2023-12-09T13:28:53.107Z,2.52
2023-12-09T13:31:21.398Z,2.49
2023-12-09T13:33:50.117Z,2.49
2023-12-09T13:36:18.609Z,2.53
2023-12-09T13:38:46.938Z,2.52
2023-12-09T13:41:15.085Z,2.45
2023-12-09T13:43:43.372Z,2.44
2023-12-09T13:46:11.787Z,2.43
2023-12-09T13:48:40.085Z,2.45
2023-12-09T13:51:11.528Z,2.43
2023-12-09T13:53:39.942Z,2.39
2023-12-09T13:56:10.393Z,2.34
2023-12-09T13:58:39.211Z,2.33
2023-12-09T14:01:08.184Z,2.30
2023-12-09T14:03:36.895Z,2.31
2023-12-09T14:06:08.964Z,2.33
2023-12-09T14:08:37.479Z,2.31
2023-12-09T14:11:08.872Z,2.31
2023-12-09T14:13:37.098Z,2.31
2023-12-09T14:16:05.884Z,2.30
2023-12-09T14:18:34.308Z,2.31
2023-12-09T14:21:02.734Z,2.30
2023-12-09T14:23:30.906Z,2.24
2023-12-09T14:25:59.043Z,2.17
2023-12-09T14:28:27.224Z,2.10
2023-12-09T14:30:56.270Z,2.04
2023-12-09T14:33:24.867Z,1.97
2023-12-09T14:35:53.973Z,1.91
2023-12-09T14:38:22.356Z,1.89
2023-12-09T14:40:51.375Z,1.85
2023-12-09T14:43:20.981Z,1.85
2023-12-09T14:45:49.319Z,1.90
2023-12-09T14:48:18.471Z,1.92
2023-12-09T14:50:46.871Z,1.94
2023-12-09T14:53:15.551Z,1.90
2023-12-09T14:55:43.776Z,1.84
2023-12-09T14:58:12.147Z,1.82
2023-12-09T15:00:40.535Z,1.83
2023-12-09T15:03:08.882Z,1.81
2023-12-09T15:05:37.697Z,1.76
2023-12-09T15:08:06.244Z,1.71
2023-12-09T15:10:34.688Z,1.66
2023-12-09T15:13:03.757Z,1.63
2023-12-09T15:15:32.258Z,1.64
2023-12-09T15:18:00.921Z,1.65
2023-12-09T15:20:29.211Z,1.65
2023-12-09T15:22:58.027Z,1.67
2023-12-09T15:25:26.537Z,1.69
2023-12-09T15:27:55.043Z,1.73
2023-12-09T15:30:23.899Z,1.74
2023-12-09T15:32:52.378Z,1.71
2023-12-09T15:35:20.565Z,1.72
2023-12-09T15:37:49.131Z,1.72
2023-12-09T15:40:17.650Z,1.69
2023-12-09T15:42:46.190Z,1.65
2023-12-09T15:45:14.664Z,1.64
2023-12-09T15:47:42.941Z,1.61
2023-12-09T15:50:11.278Z,1.60
2023-12-09T15:52:39.534Z,1.57
2023-12-09T15:55:08.270Z,1.58
2023-12-09T15:57:36.925Z,1.55
2023-12-09T16:00:07.156Z,1.48
2023-12-09T16:02:35.715Z,1.46
2023-12-09T16:05:05.197Z,1.44
2023-12-09T16:07:34.163Z,1.44
2023-12-09T16:10:02.596Z,1.46
2023-12-09T16:12:31.176Z,1.45
2023-12-09T16:15:02.421Z,1.48
2023-12-09T16:17:32.741Z,1.52
2023-12-09T16:20:03.465Z,1.54
2023-12-09T16:22:31.959Z,1.54
2023-12-09T16:25:00.338Z,1.54
2023-12-09T16:27:29.339Z,1.55
2023-12-09T16:29:57.784Z,1.54
2023-12-09T16:32:26.476Z,1.52
2023-12-09T16:34:54.989Z,1.51
2023-12-09T16:37:26.828Z,1.47
2023-12-09T16:39:55.302Z,1.42
2023-12-09T16:42:23.703Z,1.40
2023-12-09T16:44:52.079Z,1.40
2023-12-09T16:47:21.480Z,1.41
2023-12-09T16:49:49.952Z,1.43
2023-12-09T16:52:18.386Z,1.44
2023-12-09T16:54:46.733Z,1.48
2023-12-09T16:57:16.530Z,1.51
2023-12-09T16:59:44.914Z,1.51
2023-12-09T17:02:13.289Z,1.50
2023-12-09T17:04:41.744Z,1.49
2023-12-09T17:07:10.589Z,1.49
2023-12-09T17:09:38.793Z,1.48
2023-12-09T17:12:08.079Z,1.49
2023-12-09T17:14:37.225Z,1.47
2023-12-09T17:17:05.694Z,1.42
2023-12-09T17:19:34.045Z,1.34
2023-12-09T17:22:02.628Z,1.29
2023-12-09T17:24:31.915Z,1.26
2023-12-09T17:27:00.382Z,1.30
2023-12-09T17:29:28.724Z,1.34
2023-12-09T17:31:57.028Z,1.35
2023-12-09T17:34:25.717Z,1.34
2023-12-09T17:36:54.166Z,1.34
2023-12-09T17:39:22.484Z,1.34
2023-12-09T17:41:50.679Z,1.36
2023-12-09T17:44:19.015Z,1.37
2023-12-09T17:46:47.288Z,1.38
2023-12-09T17:49:16.186Z,1.35
2023-12-09T17:51:44.589Z,1.29
2023-12-09T17:54:13.150Z,1.25
2023-12-09T17:56:41.540Z,1.20
2023-12-09T17:59:09.834Z,1.21
2023-12-09T18:01:38.127Z,1.21
2023-12-09T18:04:06.472Z,1.24
2023-12-09T18:06:35.100Z,1.26
2023-12-09T18:09:04.020Z,1.23
2023-12-09T18:11:33.012Z,1.26
2023-12-09T18:14:02.996Z,1.29
2023-12-09T18:16:31.785Z,1.33
2023-12-09T18:19:01.004Z,1.34
2023-12-09T18:21:29.330Z,1.33
2023-12-09T18:23:57.828Z,1.34
2023-12-09T18:26:26.283Z,1.31
2023-12-09T18:28:54.741Z,1.29
2023-12-09T18:31:23.405Z,1.27
2023-12-09T18:33:51.834Z,1.26
2023-12-09T18:36:21.535Z,1.25
2023-12-09T18:38:49.750Z,1.25
2023-12-09T18:41:17.920Z,1.28
2023-12-09T18:43:46.175Z,1.30
2023-12-09T18:46:14.735Z,1.30
2023-12-09T18:48:43.077Z,1.32
2023-12-09T18:51:13.958Z,1.36
2023-12-09T18:53:43.829Z,1.36
2023-12-09T18:56:12.845Z,1.31
2023-12-09T18:58:41.489Z,1.30
2023-12-09T19:01:11.508Z,1.29
2023-12-09T19:03:40.771Z,1.24
2023-12-09T19:06:10.754Z,1.22
2023-12-09T19:08:39.344Z,1.12
2023-12-09T19:11:08.018Z,1.01
2023-12-09T19:13:36.508Z,1.01
2023-12-09T19:16:08.169Z,1.04
2023-12-09T19:18:39.033Z,1.04
2023-12-09T19:21:07.730Z,1.07
2023-12-09T19:23:36.466Z,1.10
2023-12-09T19:26:10.542Z,1.03
2023-12-09T19:28:38.877Z,1.07
2023-12-09T19:31:07.276Z,1.14
2023-12-09T19:33:37.128Z,1.19
2023-12-09T19:36:06.978Z,1.22
2023-12-09T19:38:35.369Z,1.20
2023-12-09T19:41:04.535Z,1.22
2023-12-09T19:43:32.844Z,1.21
2023-12-09T19:46:01.136Z,1.18
2023-12-09T19:48:29.570Z,1.15
2023-12-09T19:50:57.899Z,1.15
2023-12-09T19:53:26.518Z,1.15
2023-12-09T19:55:56.659Z,1.12
2023-12-09T19:58:24.914Z,1.11
2023-12-09T20:00:53.296Z,1.15
2023-12-09T20:03:22.404Z,1.16
2023-12-09T20:05:53.614Z,1.14
2023-12-09T20:08:24.863Z,1.08
2023-12-09T20:10:52.986Z,1.04
2023-12-09T20:13:21.864Z,1.00
2023-12-09T20:15:50.158Z,1.01
2023-12-09T20:18:20.248Z,1.04
2023-12-09T20:20:49.813Z,1.02
2023-12-09T20:23:18.146Z,1.04
2023-12-09T20:25:46.445Z,1.04
2023-12-09T20:28:15.232Z,1.02
2023-12-09T20:30:43.734Z,0.99
2023-12-09T20:33:12.174Z,0.96
2023-12-09T20:35:42.609Z,0.94
2023-12-09T20:38:11.070Z,0.92
2023-12-09T20:40:39.639Z,0.93
2023-12-09T20:43:07.961Z,0.93
2023-12-09T20:45:38.400Z,0.93
2023-12-09T20:48:08.061Z,0.93
2023-12-09T20:50:37.376Z,0.94
2023-12-09T20:53:07.682Z,0.96
2023-12-09T20:55:36.425Z,0.98
2023-12-09T20:58:05.763Z,0.91
2023-12-09T21:00:34.213Z,0.90
2023-12-09T21:03:04.439Z,0.91
2023-12-09T21:05:32.764Z,0.90
2023-12-09T21:08:00.991Z,0.90
2023-12-09T21:10:29.360Z,0.89
2023-12-09T21:12:59.341Z,0.90
2023-12-09T21:15:27.827Z,0.88
2023-12-09T21:17:59.478Z,0.90
2023-12-09T21:20:28.981Z,0.90
2023-12-09T21:23:00.223Z,0.96
2023-12-09T21:25:28.530Z,0.98
2023-12-09T21:27:56.948Z,0.97
2023-12-09T21:30:25.236Z,0.97
2023-12-09T21:32:53.599Z,0.97
2023-12-09T21:35:23.359Z,0.93
2023-12-09T21:37:53.541Z,0.92
2023-12-09T21:40:21.821Z,0.93
2023-12-09T21:42:50.893Z,0.94
2023-12-09T21:45:19.326Z,0.94
2023-12-09T21:47:49.862Z,0.98
2023-12-09T21:50:20.377Z,0.98
2023-12-09T21:52:48.881Z,0.98
2023-12-09T21:55:17.176Z,1.00
2023-12-09T21:57:45.605Z,1.02
2023-12-09T22:00:14.474Z,1.03
2023-12-09T22:02:43.022Z,1.04
2023-12-09T22:05:11.560Z,1.07
2023-12-09T22:07:39.847Z,1.07
2023-12-09T22:10:08.499Z,1.06
2023-12-09T22:12:39.666Z,1.05
2023-12-09T22:15:09.824Z,1.02
2023-12-09T22:17:40.265Z,0.99
2023-12-09T22:20:09.861Z,0.97
2023-12-09T22:22:44.573Z,0.93
2023-12-09T22:25:20.023Z,0.86
2023-12-09T22:27:48.499Z,0.82
2023-12-09T22:30:17.314Z,0.80
2023-12-09T22:32:45.780Z,0.81
2023-12-09T22:35:14.070Z,0.81
2023-12-09T22:37:42.286Z,0.83
2023-12-09T22:40:11.381Z,0.81
2023-12-09T22:42:39.879Z,0.79
2023-12-09T22:45:09.704Z,0.79
2023-12-09T22:47:38.185Z,0.77
2023-12-09T22:50:07.442Z,0.74
2023-12-09T22:52:35.782Z,0.75
2023-12-09T22:55:04.345Z,0.71
2023-12-09T22:57:32.722Z,0.71
2023-12-09T23:00:00.978Z,0.74
2023-12-09T23:02:29.874Z,0.74
2023-12-09T23:04:58.263Z,0.76
2023-12-09T23:07:26.505Z,0.78
2023-12-09T23:09:55.363Z,0.75
2023-12-09T23:12:23.682Z,0.70
2023-12-09T23:14:51.997Z,0.67
2023-12-09T23:17:20.130Z,0.67
2023-12-09T23:19:48.421Z,0.64
2023-12-09T23:22:17.149Z,0.64
2023-12-09T23:24:45.448Z,0.68
2023-12-09T23:27:13.788Z,0.75
2023-12-09T23:29:42.314Z,0.80
2023-12-09T23:32:10.572Z,0.84
2023-12-09T23:34:39.029Z,0.85
2023-12-09T23:37:07.534Z,0.83
2023-12-09T23:39:38.231Z,0.81
2023-12-09T23:42:06.781Z,0.79
2023-12-09T23:44:35.509Z,0.78
2023-12-09T23:47:03.957Z,0.74
2023-12-09T23:49:32.266Z,0.67
2023-12-09T23:52:00.608Z,0.57
2023-12-09T23:54:30.705Z,0.45
2023-12-09T23:56:59.020Z,0.33
2023-12-09T23:59:27.258Z,0.30
